Time;durP1;ratioP1;P1;durP2;ratioP2;P2;SDS_P1;SDS_P2;PMS_P1;PMS_P2;Temp;Humidity;BMP_temperature;BMP_pressure;BME280_temperature;BME280_humidity;BME280_pressure;Samples;Min_cycle;Max_cycle;Signal;HPM_P1;HPM_P2
2022/03/21 00:01:23;;;;;;;61.70;21.23;;;;;;;38.91;45.09;100870.97;4752459;30;20869;-70
2022/03/21 00:03:49;;;;;;;44.60;15.90;;;;;;;38.80;45.18;100867.75;4750937;30;20556;-71
2022/03/21 00:06:15;;;;;;;34.57;16.70;;;;;;;38.89;45.21;100856.91;4781500;29;20530;-71
2022/03/21 00:08:43;;;;;;;52.40;20.00;;;;;;;39.06;44.86;100858.91;4781275;29;20469;-71
2022/03/21 00:11:10;;;;;;;37.60;16.03;;;;;;;39.07;45.01;100855.06;4766054;30;20457;-71
2022/03/21 00:13:38;;;;;;;53.53;16.67;;;;;;;39.06;44.55;100865.13;4766187;30;20502;-71
2022/03/21 00:16:04;;;;;;;52.13;20.33;;;;;;;38.88;44.68;100858.03;4751479;30;20441;-69
2022/03/21 00:18:31;;;;;;;48.93;16.30;;;;;;;38.66;44.64;100862.34;4752343;30;20460;-71
2022/03/21 00:20:57;;;;;;;37.37;14.57;;;;;;;38.85;44.67;100866.78;4751231;30;20559;-69
2022/03/21 00:23:25;;;;;;;50.17;16.33;;;;;;;38.80;44.57;100862.31;4751179;30;20523;-69
2022/03/21 00:25:51;;;;;;;45.40;18.90;;;;;;;38.87;44.84;100878.13;4765239;30;20461;-69
2022/03/21 00:28:17;;;;;;;69.80;20.67;;;;;;;38.80;44.87;100877.78;4736460;30;20521;-71
2022/03/21 00:30:45;;;;;;;47.27;18.73;;;;;;;38.84;44.85;100892.31;4765791;30;20421;-69
2022/03/21 00:33:12;;;;;;;62.33;20.13;;;;;;;38.74;45.32;100887.97;4750976;30;20476;-69
2022/03/21 00:35:42;;;;;;;33.00;13.13;;;;;;;38.92;44.82;100889.66;4750915;30;20876;-69
2022/03/21 00:38:13;;;;;;;45.87;16.70;;;;;;;38.98;44.62;100876.75;4752209;30;20409;-69
2022/03/21 00:40:39;;;;;;;44.43;17.93;;;;;;;38.77;45.00;100876.47;4780074;30;20457;-69
2022/03/21 00:43:07;;;;;;;44.27;16.70;;;;;;;38.81;45.05;100890.22;4752194;30;20409;-69
2022/03/21 00:45:34;;;;;;;42.43;17.40;;;;;;;38.97;44.74;100880.56;4765437;30;20444;-70
2022/03/21 00:47:59;;;;;;;46.47;15.60;;;;;;;39.02;44.48;100879.63;4765489;30;20528;-69
2022/03/21 00:50:25;;;;;;;49.47;17.07;;;;;;;39.01;44.51;100889.69;4750803;30;21001;-69
2022/03/21 00:52:54;;;;;;;44.20;17.60;;;;;;;38.96;44.86;100887.09;4765389;30;20430;-70
2022/03/21 00:55:22;;;;;;;50.40;17.80;;;;;;;39.04;44.61;100886.34;4780310;30;20444;-71
2022/03/21 00:57:48;;;;;;;32.10;15.40;;;;;;;38.94;44.83;100890.13;4750638;30;20525;-70
2022/03/21 01:00:20;;;;;;;43.67;15.87;;;;;;;39.02;45.05;100885.84;4780251;29;20441;-70
2022/03/21 01:02:47;;;;;;;37.23;14.17;;;;;;;39.03;44.74;100884.72;4751524;30;20485;-69
2022/03/21 01:05:13;;;;;;;37.70;15.60;;;;;;;38.85;44.73;100880.34;4765167;30;20862;-69
2022/03/21 01:07:40;;;;;;;39.50;17.97;;;;;;;38.75;45.07;100877.91;4765545;30;20944;-70
2022/03/21 01:10:09;;;;;;;36.30;17.47;;;;;;;38.95;44.72;100880.06;4750478;30;20956;-71
2022/03/21 01:12:35;;;;;;;52.83;18.17;;;;;;;38.70;45.40;100882.31;4750416;30;20491;-70
2022/03/21 01:15:01;;;;;;;49.40;17.90;;;;;;;38.71;45.16;100883.13;4780317;29;20428;-71
2022/03/21 01:17:27;;;;;;;39.00;16.73;;;;;;;38.85;45.29;100880.34;4750337;30;20433;-69
2022/03/21 01:19:54;;;;;;;51.90;18.60;;;;;;;38.93;44.53;100882.31;4750400;30;20441;-68
2022/03/21 01:22:20;;;;;;;40.73;15.63;;;;;;;38.72;45.05;100883.94;4765033;30;20511;-71
2022/03/21 01:24:46;;;;;;;46.20;14.30;;;;;;;38.82;45.05;100876.34;4765175;30;20445;-71
2022/03/21 01:27:12;;;;;;;43.60;16.20;;;;;;;38.77;45.17;100867.56;4765024;30;20834;-69
2022/03/21 01:29:38;;;;;;;50.80;16.77;;;;;;;38.93;45.01;100861.41;4764952;30;20520;-70
2022/03/21 01:32:04;;;;;;;46.80;16.70;;;;;;;38.91;44.65;100854.69;4751476;30;20457;-71
2022/03/21 01:34:30;;;;;;;64.30;20.03;;;;;;;38.73;45.19;100851.09;4750251;30;20437;-71
2022/03/21 01:36:56;;;;;;;57.77;14.70;;;;;;;38.89;44.82;100855.00;4764601;30;20448;-70
2022/03/21 01:39:22;;;;;;;37.10;16.30;;;;;;;38.73;45.32;100856.50;4735442;30;20475;-68
2022/03/21 01:41:48;;;;;;;40.50;14.43;;;;;;;38.73;45.54;100853.00;4764677;30;20519;-71
2022/03/21 01:44:16;;;;;;;38.30;14.40;;;;;;;38.75;45.85;100848.88;4765009;30;20448;-71
2022/03/21 01:46:42;;;;;;;46.10;16.30;;;;;;;38.88;45.45;100852.63;4751361;30;20860;-70
2022/03/21 01:49:09;;;;;;;48.87;18.73;;;;;;;39.01;45.25;100849.00;4764786;30;20472;-70
2022/03/21 01:51:41;;;;;;;46.23;16.27;;;;;;;38.73;45.90;100856.50;4764945;30;20465;-70
2022/03/21 01:56:52;;;;;;;48.97;17.17;;;;;;;38.37;45.90;100848.50;4751495;30;20428;-70
2022/03/21 01:59:20;;;;;;;50.90;16.63;;;;;;;38.61;45.43;100848.97;4751243;30;20413;-70
2022/03/21 02:01:48;;;;;;;59.53;16.63;;;;;;;38.60;44.74;100844.63;4750411;30;20523;-69
2022/03/21 02:04:15;;;;;;;44.57;19.00;;;;;;;38.57;45.05;100841.75;4779673;29;20436;-70
2022/03/21 02:06:44;;;;;;;95.80;18.70;;;;;;;38.70;44.94;100836.22;4779647;29;20432;-70
2022/03/21 02:09:11;;;;;;;54.50;16.30;;;;;;;38.85;44.73;100832.31;4749864;30;20436;-70
2022/03/21 02:11:38;;;;;;;44.30;17.37;;;;;;;38.79;44.99;100824.66;4764754;30;20440;-70
2022/03/21 02:14:06;;;;;;;40.13;14.03;;;;;;;38.87;44.76;100827.41;4749866;30;20444;-69
2022/03/21 02:16:34;;;;;;;49.53;17.30;;;;;;;38.70;45.26;100825.38;4779183;30;20418;-69
2022/03/21 02:19:04;;;;;;;53.50;16.70;;;;;;;38.56;45.50;100821.19;4749908;30;20445;-68
2022/03/21 02:21:57;;;;;;;30.67;14.47;;;;;;;38.54;46.05;100826.09;4750962;30;20471;-68
2022/03/21 02:24:52;;;;;;;48.57;16.83;;;;;;;38.50;46.26;100825.13;4764559;30;20433;-69
2022/03/21 02:27:18;;;;;;;44.93;15.80;;;;;;;38.79;45.73;100819.22;4751096;30;20421;-70
2022/03/21 02:29:48;;;;;;;61.40;18.83;;;;;;;38.73;45.55;100829.41;4764404;30;20440;-70
2022/03/21 02:32:15;;;;;;;55.57;20.27;;;;;;;38.54;45.53;100831.53;4749763;30;20531;-71
2022/03/21 02:34:41;;;;;;;45.70;15.77;;;;;;;38.63;45.67;100830.47;4764466;30;20495;-69
2022/03/21 02:37:11;;;;;;;33.23;15.97;;;;;;;38.90;45.40;100831.41;4750891;30;20817;-71
2022/03/21 02:39:38;;;;;;;51.77;18.63;;;;;;;38.68;45.08;100827.63;4764532;30;20435;-70
2022/03/21 02:42:05;;;;;;;39.60;14.70;;;;;;;38.76;44.62;100842.34;4764216;30;20492;-70
2022/03/21 02:44:38;;;;;;;60.57;19.13;;;;;;;38.73;45.04;100829.41;4749666;30;20440;-69
2022/03/21 02:47:06;;;;;;;44.60;16.10;;;;;;;38.70;44.71;100836.22;4764634;30;20449;-69
2022/03/21 02:49:33;;;;;;;69.07;22.50;;;;;;;38.63;44.78;100835.09;4751491;30;20437;-71
2022/03/21 02:52:00;;;;;;;38.83;15.70;;;;;;;38.59;44.62;100843.03;4753811;30;20965;-71
2022/03/21 02:54:26;;;;;;;60.53;17.43;;;;;;;38.28;45.18;100851.13;4767595;30;20488;-71
2022/03/21 02:56:53;;;;;;;36.97;14.10;;;;;;;38.44;45.46;100846.16;4752595;30;20867;-71
2022/03/21 02:59:19;;;;;;;49.53;14.23;;;;;;;38.39;45.77;100848.97;4752604;30;20441;-70
2022/03/21 03:01:45;;;;;;;36.47;18.10;;;;;;;38.24;45.86;100847.41;4767056;30;20488;-71
2022/03/21 03:04:11;;;;;;;38.30;17.53;;;;;;;37.94;46.01;100845.44;4752377;30;20490;-69
2022/03/21 03:06:40;;;;;;;32.50;15.27;;;;;;;38.49;45.17;100853.31;4767330;30;20494;-71
2022/03/21 03:09:09;;;;;;;41.93;16.03;;;;;;;38.50;45.30;100849.53;4752588;30;20437;-70
2022/03/21 03:11:37;;;;;;;37.83;15.13;;;;;;;38.48;44.97;100852.53;4752309;30;20460;-71
2022/03/21 03:14:04;;;;;;;40.63;12.60;;;;;;;38.39;44.73;100868.75;4753729;30;20990;-70
2022/03/21 03:16:30;;;;;;;36.30;15.30;;;;;;;38.23;45.45;100863.97;4752176;30;20887;-71
2022/03/21 03:18:56;;;;;;;47.40;14.37;;;;;;;38.09;45.80;100878.38;4767116;30;20441;-71
2022/03/21 03:21:24;;;;;;;37.17;14.10;;;;;;;38.36;45.48;100876.69;4766848;30;21027;-69
2022/03/21 03:23:51;;;;;;;55.07;14.30;;;;;;;38.27;45.76;100871.22;4752320;30;20531;-68
2022/03/21 03:26:17;;;;;;;45.13;16.90;;;;;;;38.28;45.91;100867.41;4752309;30;20479;-69
2022/03/21 03:28:44;;;;;;;38.47;14.83;;;;;;;38.36;45.25;100866.66;4751946;30;20476;-71
2022/03/21 03:31:13;;;;;;;48.20;15.47;;;;;;;38.33;44.68;100875.41;4752195;30;20485;-71
2022/03/21 03:33:39;;;;;;;32.47;15.60;;;;;;;37.84;45.39;100868.16;4751974;30;20433;-70
2022/03/21 03:36:06;;;;;;;39.13;14.37;;;;;;;38.05;45.28;100871.16;4751912;30;20907;-70
2022/03/21 03:38:32;;;;;;;40.53;13.50;;;;;;;38.22;45.26;100862.38;4766469;30;20445;-70
2022/03/21 03:40:58;;;;;;;27.63;13.00;;;;;;;38.51;44.63;100862.75;4766491;30;20534;-70
2022/03/21 03:43:24;;;;;;;33.13;13.53;;;;;;;38.68;43.76;100862.88;4751988;30;20465;-70
2022/03/21 03:45:52;;;;;;;35.03;13.63;;;;;;;38.85;43.87;100853.22;4751945;30;20951;-71
2022/03/21 03:48:21;;;;;;;50.10;17.07;;;;;;;38.63;44.39;100865.69;4751860;30;20444;-70
2022/03/21 03:50:47;;;;;;;43.67;16.57;;;;;;;38.63;44.31;100851.34;4751851;30;20582;-70
2022/03/21 03:53:14;;;;;;;38.27;15.20;;;;;;;38.47;44.23;100859.06;4752539;30;20425;-70
2022/03/21 03:55:40;;;;;;;49.17;13.93;;;;;;;38.36;44.11;100863.13;4766841;30;20808;-70
2022/03/21 03:58:06;;;;;;;37.43;15.20;;;;;;;38.34;44.47;100863.44;4766310;30;20517;-71
2022/03/21 04:00:32;;;;;;;36.70;14.03;;;;;;;38.03;44.96;100851.72;4765433;30;20443;-71
2022/03/21 04:05:42;;;;;;;29.60;13.17;;;;;;;38.29;44.84;100855.44;4752648;30;20879;-70
2022/03/21 04:08:09;;;;;;;35.53;12.93;;;;;;;38.52;44.59;100853.53;4751498;30;20924;-71
2022/03/21 04:10:35;;;;;;;50.50;17.20;;;;;;;38.17;44.67;100849.75;4751267;30;20309;-70
2022/03/21 04:13:01;;;;;;;36.73;12.73;;;;;;;38.36;44.56;100849.59;4765976;30;20437;-70
2022/03/21 04:15:27;;;;;;;33.93;12.77;;;;;;;38.37;44.81;100860.13;4752526;30;20422;-70
2022/03/21 04:17:58;;;;;;;28.50;11.00;;;;;;;38.43;44.60;100847.25;4766332;30;20441;-71
2022/03/21 04:20:24;;;;;;;40.77;14.20;;;;;;;38.47;44.65;100847.44;4766161;30;20413;-70
2022/03/21 04:22:50;;;;;;;46.27;16.30;;;;;;;38.39;44.71;100847.06;4766245;30;20485;-70
2022/03/21 04:25:16;;;;;;;45.07;13.83;;;;;;;38.40;44.67;100862.22;4751157;30;20463;-70
2022/03/21 04:27:42;;;;;;;36.83;14.80;;;;;;;38.33;45.24;100864.56;4751306;30;20901;-70
2022/03/21 04:30:08;;;;;;;46.80;15.73;;;;;;;38.31;45.71;100861.38;4766052;30;20190;-70
2022/03/21 04:32:34;;;;;;;35.83;15.87;;;;;;;38.18;45.29;100854.88;4752417;30;20446;-69
2022/03/21 04:35:01;;;;;;;40.93;16.10;;;;;;;38.27;44.86;100854.16;4752282;30;20875;-69
2022/03/21 04:37:27;;;;;;;33.80;12.70;;;;;;;38.29;45.05;100858.16;4765965;30;20433;-69
2022/03/21 04:39:54;;;;;;;42.03;13.50;;;;;;;38.28;45.50;100866.59;4765810;30;20433;-69
2022/03/21 04:42:21;;;;;;;46.07;17.50;;;;;;;38.48;44.96;100865.28;4765711;30;21069;-71
2022/03/21 04:44:50;;;;;;;37.57;14.17;;;;;;;38.70;44.37;100874.19;4750969;30;20938;-69
2022/03/21 04:47:17;;;;;;;45.33;20.17;;;;;;;38.24;45.68;100873.69;4750966;30;20433;-68
2022/03/21 04:49:44;;;;;;;44.03;15.03;;;;;;;37.96;46.22;100878.44;4765549;30;20509;-71
2022/03/21 04:52:10;;;;;;;33.63;15.47;;;;;;;38.14;45.00;100883.69;4750721;30;20847;-71
2022/03/21 04:54:36;;;;;;;30.40;12.80;;;;;;;38.39;44.59;100887.72;4750788;30;20433;-70
2022/03/21 04:57:05;;;;;;;38.33;15.73;;;;;;;38.33;44.77;100890.88;4765606;30;20437;-69
2022/03/21 04:59:31;;;;;;;36.93;13.43;;;;;;;38.22;45.40;100882.16;4752013;30;20417;-68
2022/03/21 05:01:57;;;;;;;41.10;16.13;;;;;;;38.43;45.33;100879.78;4750327;30;20507;-70
2022/03/21 05:04:23;;;;;;;44.57;16.10;;;;;;;38.49;44.38;100883.97;4750801;30;20195;-71
2022/03/21 05:06:48;;;;;;;50.70;19.50;;;;;;;38.43;45.02;100882.50;4765437;30;20528;-71
2022/03/21 05:09:14;;;;;;;46.37;17.00;;;;;;;38.47;45.31;100888.88;4750623;30;20195;-71
2022/03/21 05:11:40;;;;;;;50.37;18.13;;;;;;;38.04;45.97;100892.03;4765038;30;20671;-70
2022/03/21 05:14:06;;;;;;;28.90;12.90;;;;;;;37.99;45.88;100888.66;4765396;30;20194;-69
2022/03/21 05:16:32;;;;;;;37.43;12.53;;;;;;;38.14;45.30;100883.69;4765222;30;20417;-69
2022/03/21 05:18:58;;;;;;;38.07;16.27;;;;;;;38.10;45.16;100887.31;4750754;30;20428;-70
2022/03/21 05:21:24;;;;;;;44.17;14.37;;;;;;;37.72;46.05;100886.78;4765304;30;20496;-68
2022/03/21 05:32:04;;;;;;;40.93;16.57;;;;;;;38.02;45.86;100891.56;4750942;30;20548;-69
2022/03/21 05:37:14;;;;;;;44.77;13.23;;;;;;;38.26;45.32;100885.88;4750885;30;20847;-70
2022/03/21 05:40:31;;;;;;;49.33;14.63;;;;;;;38.30;45.29;100883.34;4750169;30;20444;-68
2022/03/21 05:42:26;;;;;;;38.93;15.37;;;;;;;38.34;46.04;100887.03;4751300;30;20473;-70
2022/03/21 05:44:52;;;;;;;32.87;15.07;;;;;;;38.33;45.64;100885.44;4750160;30;20440;-71
2022/03/21 05:47:18;;;;;;;45.27;18.30;;;;;;;38.15;46.21;100895.31;4721180;30;20925;-70
2022/03/21 05:49:44;;;;;;;31.80;13.07;;;;;;;38.29;45.79;100896.09;4762552;30;20426;-70
2022/03/21 05:52:10;;;;;;;39.13;16.30;;;;;;;38.29;46.01;100906.13;4750104;30;20441;-69
2022/03/21 05:54:36;;;;;;;39.23;14.40;;;;;;;38.43;45.60;100899.56;4764883;30;20445;-69
2022/03/21 05:57:03;;;;;;;31.90;13.73;;;;;;;38.32;44.98;100905.53;4764743;30;20980;-68
2022/03/21 06:02:14;;;;;;;33.53;13.90;;;;;;;38.31;44.18;100920.19;4750454;30;20503;-74
2022/03/21 06:04:40;;;;;;;31.17;12.80;;;;;;;38.53;44.19;100922.06;4750784;30;20839;-71
2022/03/21 06:07:06;;;;;;;42.07;14.47;;;;;;;38.57;44.45;100923.06;4764204;30;20929;-70
2022/03/21 06:09:32;;;;;;;38.93;14.87;;;;;;;38.74;44.27;100927.84;4764009;30;20494;-73
2022/03/21 06:11:58;;;;;;;37.43;15.53;;;;;;;38.68;44.11;100940.69;4778459;29;20513;-70
2022/03/21 06:14:24;;;;;;;37.97;16.50;;;;;;;38.79;43.85;100941.25;4763439;30;20225;-70
2022/03/21 06:16:50;;;;;;;37.27;12.90;;;;;;;38.69;44.07;100940.38;4768457;30;20530;-69
2022/03/21 06:19:16;;;;;;;34.67;14.63;;;;;;;38.63;44.42;100940.81;4760723;30;20556;-70
2022/03/21 06:21:42;;;;;;;48.40;16.70;;;;;;;38.45;44.58;100953.44;4748115;30;20210;-71
2022/03/21 06:24:12;;;;;;;52.53;16.43;;;;;;;38.70;44.18;100957.44;4779477;29;20437;-72
2022/03/21 06:26:39;;;;;;;33.10;15.70;;;;;;;38.76;43.80;100963.56;4753575;29;20449;-70
2022/03/21 06:29:05;;;;;;;48.77;17.17;;;;;;;38.51;44.28;100967.66;4766138;30;20432;-69
2022/03/21 06:31:31;;;;;;;37.70;16.57;;;;;;;38.62;43.96;100967.13;4781032;29;20440;-70
2022/03/21 06:33:57;;;;;;;32.27;13.90;;;;;;;38.52;44.44;100964.66;4781098;29;20440;-70
2022/03/21 06:36:23;;;;;;;29.50;14.97;;;;;;;38.69;44.16;100962.06;4766229;30;20474;-70
2022/03/21 06:38:49;;;;;;;38.10;13.93;;;;;;;38.59;44.59;100967.72;4752598;30;20425;-69
2022/03/21 06:41:16;;;;;;;35.90;18.13;;;;;;;38.61;44.37;100970.94;4752531;30;20459;-69
2022/03/21 06:43:42;;;;;;;41.43;16.17;;;;;;;38.69;43.72;100959.34;4781686;29;20436;-71
2022/03/21 06:46:08;;;;;;;33.87;12.73;;;;;;;38.79;43.83;100968.34;4767638;30;20449;-70
2022/03/21 06:48:35;;;;;;;40.57;19.33;;;;;;;38.73;44.17;100977.72;4752890;30;20817;-70
2022/03/21 06:51:01;;;;;;;51.73;19.23;;;;;;;38.62;44.37;100972.53;4782612;29;20896;-70
2022/03/21 06:53:27;;;;;;;35.57;14.40;;;;;;;38.55;44.70;100971.34;4782581;29;20588;-70
2022/03/21 06:55:53;;;;;;;40.67;17.00;;;;;;;38.60;44.73;100977.44;4753792;30;20460;-70
2022/03/21 06:58:18;;;;;;;47.07;14.77;;;;;;;38.74;44.68;100976.66;4782307;29;20440;-70
2022/03/21 07:00:47;;;;;;;40.77;15.63;;;;;;;38.80;44.73;100978.13;4752022;30;20453;-71
2022/03/21 07:03:15;;;;;;;37.73;17.80;;;;;;;38.63;45.15;100986.91;4752051;30;20488;-69
2022/03/21 07:05:41;;;;;;;62.20;19.80;;;;;;;38.46;44.97;100997.59;4752732;30;20486;-69
2022/03/21 07:08:08;;;;;;;30.40;17.10;;;;;;;38.55;44.47;100995.75;4753906;30;20413;-69
2022/03/21 07:10:34;;;;;;;49.87;16.13;;;;;;;38.43;44.93;100994.41;4751675;30;20465;-69
2022/03/21 07:13:07;;;;;;;34.77;14.40;;;;;;;38.69;44.25;101001.94;4766838;30;20510;-71
2022/03/21 07:15:33;;;;;;;44.17;17.77;;;;;;;38.46;44.46;101001.09;4766076;30;20441;-71
2022/03/21 07:17:59;;;;;;;34.03;11.80;;;;;;;38.65;44.18;101001.72;4750824;30;20479;-71
2022/03/21 07:20:26;;;;;;;39.73;15.77;;;;;;;38.89;43.58;101000.66;4765829;30;20812;-71
2022/03/21 07:22:56;;;;;;;37.93;14.53;;;;;;;38.99;43.77;101003.13;4765745;30;20992;-70
2022/03/21 07:25:23;;;;;;;44.97;15.10;;;;;;;39.00;43.59;101003.91;4751210;30;20437;-71
2022/03/21 07:27:49;;;;;;;44.87;14.67;;;;;;;39.12;43.70;101009.56;4761816;30;20584;-71
2022/03/21 07:30:16;;;;;;;52.80;14.57;;;;;;;39.08;43.77;101005.88;4766539;30;20524;-70
2022/03/21 07:32:43;;;;;;;34.63;14.07;;;;;;;39.07;43.95;101004.28;4752855;30;20414;-71
2022/03/21 07:35:10;;;;;;;32.70;13.57;;;;;;;39.15;43.41;101009.72;4748547;30;21029;-71
2022/03/21 07:37:50;;;;;;;29.43;12.33;;;;;;;39.19;43.18;101015.38;4751844;30;20933;-71
2022/03/21 07:40:18;;;;;;;32.17;12.87;;;;;;;39.23;43.19;101013.66;4749675;30;20513;-71
2022/03/21 07:42:46;;;;;;;32.50;13.93;;;;;;;39.17;43.55;101010.28;4749176;30;20522;-71
2022/03/21 07:47:59;;;;;;;34.30;13.57;;;;;;;39.27;43.32;101013.81;4752164;30;20798;-69
2022/03/21 07:50:26;;;;;;;31.63;12.87;;;;;;;39.32;43.18;101002.84;4748209;30;20453;-69
2022/03/21 07:52:54;;;;;;;38.63;14.63;;;;;;;39.36;42.75;101009.25;4751418;30;20412;-69
2022/03/21 07:55:21;;;;;;;49.83;19.93;;;;;;;39.32;42.28;101010.97;4736428;30;20423;-69
2022/03/21 07:57:47;;;;;;;40.37;14.30;;;;;;;39.16;42.85;101008.66;4780872;30;20421;-70
2022/03/21 08:00:14;;;;;;;34.23;13.70;;;;;;;39.20;42.66;101014.25;4766057;30;20437;-68
2022/03/21 08:02:44;;;;;;;43.80;13.53;;;;;;;38.89;43.40;101016.94;4762959;30;20493;-69
2022/03/21 08:05:11;;;;;;;32.87;16.00;;;;;;;38.90;43.69;101018.53;4735088;30;20445;-73
2022/03/21 08:07:36;;;;;;;47.40;14.70;;;;;;;38.90;43.91;101019.31;4774931;30;20437;-73
2022/03/21 08:10:03;;;;;;;31.73;14.00;;;;;;;38.89;44.05;101019.63;4766106;30;20432;-71
2022/03/21 08:12:30;;;;;;;39.60;15.60;;;;;;;38.88;44.15;101021.56;4751416;30;20413;-71
2022/03/21 08:14:56;;;;;;;52.47;14.80;;;;;;;39.01;44.02;101022.59;4750825;30;20478;-70
2022/03/21 08:17:23;;;;;;;39.40;14.27;;;;;;;38.95;44.01;101021.13;4762706;30;20441;-71
2022/03/21 08:19:49;;;;;;;39.80;14.67;;;;;;;39.05;43.89;101034.44;4763041;30;20480;-71
2022/03/21 08:22:15;;;;;;;45.03;13.63;;;;;;;39.16;43.93;101029.56;4734012;30;20470;-71
2022/03/21 08:24:41;;;;;;;38.07;15.20;;;;;;;39.16;44.25;101037.69;4748263;30;20183;-69
2022/03/21 08:27:07;;;;;;;41.83;16.30;;;;;;;39.09;44.57;101026.47;4763124;30;20418;-72
2022/03/21 08:29:33;;;;;;;61.73;17.90;;;;;;;38.94;44.77;101046.63;4748221;30;20422;-71
2022/03/21 08:32:00;;;;;;;53.83;14.97;;;;;;;39.17;43.59;101045.53;4734617;30;20788;-71
2022/03/21 08:34:26;;;;;;;34.77;12.27;;;;;;;39.09;43.02;101037.31;4747483;30;20957;-71
2022/03/21 08:36:52;;;;;;;46.80;15.50;;;;;;;39.08;42.56;101030.28;4731827;30;20483;-71
2022/03/21 08:39:18;;;;;;;26.83;14.17;;;;;;;39.13;42.75;101044.53;4761152;30;20430;-71
2022/03/21 08:41:44;;;;;;;37.37;11.63;;;;;;;39.21;42.82;101043.78;4760979;30;20211;-69
2022/03/21 08:44:09;;;;;;;29.20;13.27;;;;;;;39.34;42.78;101035.88;4761096;30;20266;-71
2022/03/21 08:46:35;;;;;;;49.83;16.50;;;;;;;39.23;43.11;101038.88;4760458;30;21092;-69
2022/03/21 08:51:46;;;;;;;31.93;16.90;;;;;;;39.00;44.21;101041.91;4734514;30;20174;-70
2022/03/21 08:54:13;;;;;;;40.77;17.47;;;;;;;39.21;44.28;101035.66;4747809;30;20434;-69
2022/03/21 08:56:40;;;;;;;45.10;13.93;;;;;;;39.14;44.07;101042.59;4733365;30;20499;-71
2022/03/21 08:59:06;;;;;;;45.73;13.90;;;;;;;39.07;44.39;101039.53;4733083;30;20496;-69
2022/03/21 09:01:32;;;;;;;47.70;15.73;;;;;;;38.85;44.71;101048.47;4762261;30;20502;-71
2022/03/21 09:04:01;;;;;;;49.00;16.73;;;;;;;39.16;44.27;101062.13;4734334;30;20437;-71
2022/03/21 09:06:27;;;;;;;46.20;15.60;;;;;;;38.82;44.55;101057.25;4732758;30;20890;-71
2022/03/21 09:08:53;;;;;;;38.50;16.10;;;;;;;38.66;44.77;101059.47;4747579;30;20434;-69
2022/03/21 09:11:19;;;;;;;33.27;14.87;;;;;;;38.79;44.96;101060.56;4734255;30;20442;-69
2022/03/21 09:13:47;;;;;;;42.07;16.37;;;;;;;38.75;44.44;101065.00;4747512;30;20518;-69
2022/03/21 09:16:14;;;;;;;48.13;17.13;;;;;;;38.57;44.81;101061.31;4747571;30;20438;-69
2022/03/21 09:18:43;;;;;;;37.30;15.47;;;;;;;38.50;44.77;101042.75;4762221;30;20457;-69
2022/03/21 09:21:11;;;;;;;43.27;13.33;;;;;;;38.79;44.82;101047.00;4747479;30;20998;-69
2022/03/21 09:23:38;;;;;;;60.60;15.87;;;;;;;38.89;44.78;101054.91;4732793;30;20441;-68
2022/03/21 09:26:05;;;;;;;38.37;18.07;;;;;;;38.99;44.75;101051.16;4762033;30;20458;-66
2022/03/21 09:28:32;;;;;;;33.07;15.87;;;;;;;38.77;45.06;101044.59;4747424;30;20425;-66
2022/03/21 09:30:59;;;;;;;47.57;15.67;;;;;;;39.10;44.16;101039.72;4747247;30;20859;-67
2022/03/21 09:33:25;;;;;;;48.87;15.27;;;;;;;38.94;44.16;101041.22;4735502;30;20467;-66
2022/03/21 09:35:51;;;;;;;27.17;14.73;;;;;;;39.10;43.93;101038.91;4735152;30;20490;-66
2022/03/21 09:38:17;;;;;;;39.87;14.37;;;;;;;39.37;43.62;101043.41;4751419;30;20888;-66
2022/03/21 09:40:45;;;;;;;29.47;14.27;;;;;;;39.37;43.67;101041.50;4751408;30;20691;-66
2022/03/21 09:43:12;;;;;;;51.17;14.33;;;;;;;39.39;43.41;101036.53;4750169;30;20832;-66
2022/03/21 09:45:38;;;;;;;41.70;13.70;;;;;;;39.07;44.00;101048.47;4750184;30;20541;-66
2022/03/21 09:48:08;;;;;;;35.17;12.37;;;;;;;38.81;44.87;101039.38;4734964;30;21011;-67
2022/03/21 09:50:42;;;;;;;36.13;14.73;;;;;;;38.86;44.43;101040.06;4750200;30;20439;-67
2022/03/21 09:53:09;;;;;;;41.20;15.67;;;;;;;39.03;44.43;101035.84;4751395;30;20410;-66
2022/03/21 09:55:36;;;;;;;45.70;12.73;;;;;;;39.01;44.32;101038.06;4720945;30;20833;-72
2022/03/21 09:58:02;;;;;;;32.53;12.43;;;;;;;39.13;44.21;101041.81;4751330;30;20468;-66
2022/03/21 10:00:28;;;;;;;38.43;14.43;;;;;;;39.25;43.83;101041.28;4768358;30;20462;-69
2022/03/21 10:02:56;;;;;;;47.80;16.53;;;;;;;39.21;43.73;101040.28;4767915;30;20540;-69
2022/03/21 10:05:32;;;;;;;30.67;11.07;;;;;;;39.46;43.47;101044.25;4753592;30;20474;-69
2022/03/21 10:08:24;;;;;;;43.40;16.63;;;;;;;39.28;43.83;101046.06;4767569;30;20450;-69
2022/03/21 10:10:59;;;;;;;39.90;13.47;;;;;;;39.50;43.14;101042.50;4754756;30;21084;-70
2022/03/21 10:13:31;;;;;;;27.07;10.63;;;;;;;39.54;43.19;101035.34;4754582;30;20956;-70
2022/03/21 10:16:08;;;;;;;31.30;12.30;;;;;;;39.52;43.22;101044.91;4753361;30;20433;-68
2022/03/21 10:18:35;;;;;;;47.20;13.67;;;;;;;39.14;43.85;101046.13;4753141;30;20498;-68
2022/03/21 10:21:29;;;;;;;51.30;14.27;;;;;;;39.31;43.36;101041.94;4738679;30;20436;-68
2022/03/21 10:24:10;;;;;;;31.13;12.17;;;;;;;39.55;43.03;101041.56;4754000;30;20492;-68
2022/03/21 10:26:46;;;;;;;31.27;12.80;;;;;;;39.60;42.91;101041.44;4739809;30;20437;-68
2022/03/21 10:29:12;;;;;;;40.07;13.00;;;;;;;39.57;43.10;101034.72;4754306;30;20456;-67
2022/03/21 10:31:52;;;;;;;35.50;13.00;;;;;;;39.41;43.60;101038.94;4753225;30;20452;-70
2022/03/21 10:34:20;;;;;;;38.40;14.40;;;;;;;39.41;43.74;101037.06;4753137;30;20432;-70
2022/03/21 10:37:03;;;;;;;36.03;10.97;;;;;;;39.63;43.00;101028.06;4753093;30;20425;-70
2022/03/21 10:39:34;;;;;;;45.53;13.73;;;;;;;39.78;42.66;101015.16;4737715;30;20437;-67
2022/03/21 10:42:03;;;;;;;47.03;15.20;;;;;;;39.87;42.55;101021.44;4753095;30;20920;-68
2022/03/21 10:44:29;;;;;;;43.93;15.47;;;;;;;39.79;42.49;101016.78;4736849;30;20455;-67
2022/03/21 10:46:59;;;;;;;32.50;12.90;;;;;;;39.90;42.37;101018.06;4752428;30;20444;-66
2022/03/21 10:49:35;;;;;;;50.40;16.03;;;;;;;39.65;42.76;101019.59;4776426;30;20428;-67
2022/03/21 10:52:03;;;;;;;41.67;15.50;;;;;;;39.80;42.77;101010.22;4761951;30;20463;-66
2022/03/21 10:54:42;;;;;;;46.20;17.20;;;;;;;39.77;42.92;101011.63;4769844;30;20539;-67
2022/03/21 10:57:30;;;;;;;47.07;19.60;;;;;;;39.69;42.98;101002.34;4776785;30;20504;-67
2022/03/21 11:00:17;;;;;;;30.03;12.90;;;;;;;39.73;43.00;101011.50;4760805;30;20421;-67
2022/03/21 11:03:05;;;;;;;42.13;15.97;;;;;;;39.61;43.19;100992.28;4760922;30;20519;-67
2022/03/21 11:05:35;;;;;;;25.57;12.27;;;;;;;39.55;43.52;100987.28;4765705;30;20464;-70
2022/03/21 11:08:02;;;;;;;45.13;18.60;;;;;;;39.58;43.46;100987.44;4758321;30;20452;-69
2022/03/21 11:10:29;;;;;;;47.40;12.80;;;;;;;39.66;43.28;100985.91;4766388;30;20986;-70
2022/03/21 11:12:57;;;;;;;36.97;11.83;;;;;;;39.61;44.00;100989.56;4751893;30;20453;-69
2022/03/21 11:15:24;;;;;;;26.83;11.10;;;;;;;39.48;44.05;100987.75;4750157;30;20420;-67
2022/03/21 11:17:51;;;;;;;36.17;11.93;;;;;;;39.68;43.74;100995.34;4751023;30;20436;-67
2022/03/21 11:20:17;;;;;;;32.80;11.90;;;;;;;39.43;43.65;100987.88;4765132;30;20434;-67
2022/03/21 11:22:44;;;;;;;37.00;11.30;;;;;;;39.31;43.36;100982.25;4736525;30;20476;-67
2022/03/21 11:25:13;;;;;;;32.13;11.67;;;;;;;39.15;43.49;100988.03;4751893;30;20819;-67
2022/03/21 11:28:04;;;;;;;30.67;12.53;;;;;;;39.32;43.50;100981.91;4751754;30;20425;-70
2022/03/21 11:30:58;;;;;;;38.27;12.10;;;;;;;39.37;42.92;100981.00;4763839;30;20422;-70
2022/03/21 11:33:49;;;;;;;26.33;8.87;;;;;;;39.45;42.64;100974.78;4763930;30;20458;-70
2022/03/21 11:36:15;;;;;;;30.20;8.40;;;;;;;39.26;42.66;100969.59;4769566;30;20417;-67
2022/03/21 11:38:47;;;;;;;23.33;9.70;;;;;;;39.32;43.06;100970.28;4760411;30;20456;-67